KDIJ

Driggs-Reed Memorial Airport

Driggs, Idaho, USA
METAR KDIJ 252156Z AUTO 17006KT 10SM FEW110 24/04 A3005 RMK AO2 SLP121 T02390039
Observed Flight Rules
May-25 @ 21:56 UTC (41 minutes ago) Visual Flight Rules
Wind Visibility Clouds
170° at 6 knots 10 miles
  • Few at 11,000' AGL
Temperatures Readings
Current 24°C / 75°F
Dewpoint 4°C / 39°F
Humidity 27%
Altimeter 30.05" Hg
Pressure 1012.1 hPa
Elevation 1899
METAR KDIJ 252156Z AUTO 17006KT 10SM FEW110 24/04 A3005 RMK AO2 SLP121 T02390039
Observed Flight Rules
May-25 @ 21:56 UTC
(41 minutes ago)
VFR
Wind Visibility
170° at 6 knots 10 miles
Clouds
  • Few at 11,000' AGL
Temperature Dewpoint
24°C / 75°F 4°C / 39°F
Humidity Altimeter Pressure
27% 30.05" Hg 1012.1 hPa